AirNav   Phillips 66 Aviation Fuel
 
 508 users online  

25FD Ritz Carlton Grande Lakes Seaplane Base
Orlando, Florida, USA


FAA INFORMATION EFFECTIVE 01 FEBRUARY 2018

Location

FAA Identifier: 25FD
Lat/Long: 28-23-57.7700N / 081-26-08.9300W
28-23.962833N / 081-26.148833W
28.3993806 / -81.4358139
(estimated)
Elevation: 80 ft. / 24 m (estimated)
From city: 10 miles SSW of ORLANDO, FL
Time zone: UTC +0 (year round; does not observe DST)
Zip code: 32837

Seaplane Base Operations

Seaplane Base use: Private use. Permission required prior to landing
Activation date: 11/2017
Control tower: no
ARTCC: JACKSONVILLE CENTER
FSS: SAINT PETERSBURG FLIGHT SERVICE STATION
Attendance: 
Segmented circle: no

Seaplane Base Communications

WX AWOS-3PT at ISM (7 nm S): 128.775 (407-847-0533)
WX ASOS at MCO (7 nm E): PHONE 407-855-5235
WX ASOS at ORL (10 nm NE): PHONE 407-658-6753

Nearby radio navigation aids

VOR radial/distance  VOR name  Freq  Var
ORLr212/10.1ORLANDO VORTAC112.2000E
LALr050/39.4LAKELAND VORTAC116.0001E

 
NDB name  Hdg/Dist  Freq  Var  ID
HERNY187/6.422106WOR --- .-.
LEESBURG146/31.933504WLEE .-.. . .

Seaplane Base Services

Runway Information

Runway 16/34

Dimensions: 2000 x 75 ft. / 610 x 23 m
Surface: water
RUNWAY 16  RUNWAY 34
Traffic pattern: leftleft

Seaplane Base Ownership and Management from official FAA records

Ownership: Privately-owned
Owner: RITZ CARLTON GRAND LAKES
4048 CENTRAL FLORIDA PKWY
ORLANDO, FL 32837
Phone 407-393-4902
Manager: NATHAN STITH
4048 CENTRAL FLORIDA PKWY
ORLANDO, FL 32837
Phone 407-393-4902

Instrument Procedures

There are no published instrument procedures at 25FD.

Some nearby airports with instrument procedures:

KISM - Kissimmee Gateway Airport (7 nm S)
KMCO - Orlando International Airport (7 nm E)
KORL - Executive Airport (10 nm NE)
X04 - Orlando Apopka Airport (20 nm NW)
KSFB - Orlando Sanford International Airport (25 nm NE)
 
Loc | Ops | Rwys | IFR | FBO | Links
Com | Nav | Svcs | Stats | Notes

AirNav Hotels Sweepstakes
 
Aerial photo
No photo
 
Airport distance calculator
Flying to Ritz Carlton Grande Lakes Seaplane Base? Find the distance to fly.

From to 25FD

Sunrise and sunset
Times for 19-Feb-2018
 Zulu (UTC)
Morning civil twilight11:37
Sunrise12:01
Sunset23:18
Evening civil twilight23:42

Current date and time
Zulu (UTC)  19-Feb-2018 06:16:15
 
METAR
KMCO 
6nm E 
190553Z 08005KT 7SM FEW015 19/19 A3027 RMK AO2 SLP247 T01890189 10222 20189 58003
KISM 
7nm S 
190556Z AUTO 09005KT 8SM CLR 19/19 A3027 RMK AO2 SLP252 T01940189 10233 20194 58004
KORL 
11nm NE 
190553Z AUTO 07004KT 7SM CLR 19/19 A3026 RMK AO2 SLP251 T01890189 10222 20189 58003
TAF
KMCO 
6nm E 
190520Z 1906/2012 VRB03KT P6SM FEW018 TEMPO 1910/1912 5SM BR FM191500 11010KT P6SM SCT035 FM200000 09007KT P6SM FEW050
KISM 
7nm S 
190520Z 1906/2006 VRB03KT P6SM FEW020 FM191500 11009KT P6SM SCT035 FM200000 09007KT P6SM FEW050
NOTAMs
Click for the latest NOTAMs
NOTAMs are issued by the DoD/FAA and will open in a separate window not controlled by AirNav.

 

 
 

Would you like to see your business listed on this page?

 If your business provides an interesting product or service to pilots, flight crews, aircraft, or users of the Ritz Carlton Grande Lakes Seaplane Base, you should consider listing it here.  To start the listing process, click on the button below
 
Add a business
 

Other Pages about Ritz Carlton Grande Lakes Seaplane Base

Update a link
 
Copyright © AirNav, LLC. All rights reserved. Privacy Policy  Contact